sensor_id;sensor_type;location;lat;lon;timestamp;P1;durP1;ratioP1;P2;durP2;ratioP2
69256;SDS011;56376;53.356;-1.748;2023-04-25T00:01:10;12.07;;;4.07;;
69256;SDS011;56376;53.356;-1.748;2023-04-25T00:03:37;8.63;;;3.10;;
69256;SDS011;56376;53.356;-1.748;2023-04-25T00:06:03;9.30;;;3.50;;
69256;SDS011;56376;53.356;-1.748;2023-04-25T00:08:29;6.17;;;2.43;;
69256;SDS011;56376;53.356;-1.748;2023-04-25T00:10:56;8.47;;;3.00;;
69256;SDS011;56376;53.356;-1.748;2023-04-25T00:13:22;3.90;;;2.10;;
69256;SDS011;56376;53.356;-1.748;2023-04-25T00:15:47;5.50;;;2.53;;
69256;SDS011;56376;53.356;-1.748;2023-04-25T00:18:13;3.97;;;2.07;;
69256;SDS011;56376;53.356;-1.748;2023-04-25T00:20:39;4.23;;;2.40;;
69256;SDS011;56376;53.356;-1.748;2023-04-25T00:23:05;12.93;;;4.63;;
69256;SDS011;56376;53.356;-1.748;2023-04-25T00:25:30;15.63;;;5.50;;
69256;SDS011;56376;53.356;-1.748;2023-04-25T00:27:56;13.33;;;5.07;;
69256;SDS011;56376;53.356;-1.748;2023-04-25T00:30:21;14.43;;;5.30;;
69256;SDS011;56376;53.356;-1.748;2023-04-25T00:32:47;13.80;;;5.07;;
69256;SDS011;56376;53.356;-1.748;2023-04-25T00:35:13;8.57;;;3.90;;
69256;SDS011;56376;53.356;-1.748;2023-04-25T00:37:39;10.10;;;3.30;;
69256;SDS011;56376;53.356;-1.748;2023-04-25T00:40:05;6.93;;;3.17;;
69256;SDS011;56376;53.356;-1.748;2023-04-25T00:42:31;10.80;;;3.60;;
69256;SDS011;56376;53.356;-1.748;2023-04-25T00:44:57;6.50;;;2.80;;
69256;SDS011;56376;53.356;-1.748;2023-04-25T00:47:23;7.70;;;3.40;;
69256;SDS011;56376;53.356;-1.748;2023-04-25T00:49:50;6.50;;;2.60;;
69256;SDS011;56376;53.356;-1.748;2023-04-25T00:52:15;4.23;;;2.40;;
69256;SDS011;56376;53.356;-1.748;2023-04-25T00:54:40;5.10;;;2.53;;
69256;SDS011;56376;53.356;-1.748;2023-04-25T00:57:06;13.97;;;4.43;;
69256;SDS011;56376;53.356;-1.748;2023-04-25T00:59:31;20.10;;;5.53;;
69256;SDS011;56376;53.356;-1.748;2023-04-25T01:01:57;29.17;;;8.43;;
69256;SDS011;56376;53.356;-1.748;2023-04-25T01:04:23;30.47;;;8.67;;
69256;SDS011;56376;53.356;-1.748;2023-04-25T01:06:48;20.37;;;7.97;;
69256;SDS011;56376;53.356;-1.748;2023-04-25T01:09:14;17.90;;;5.23;;
69256;SDS011;56376;53.356;-1.748;2023-04-25T01:11:40;13.27;;;4.43;;
69256;SDS011;56376;53.356;-1.748;2023-04-25T01:14:05;12.40;;;3.67;;
69256;SDS011;56376;53.356;-1.748;2023-04-25T01:16:31;14.03;;;6.00;;
69256;SDS011;56376;53.356;-1.748;2023-04-25T01:18:56;7.80;;;3.10;;
69256;SDS011;56376;53.356;-1.748;2023-04-25T01:21:22;9.67;;;2.90;;
69256;SDS011;56376;53.356;-1.748;2023-04-25T01:23:48;6.60;;;2.90;;
69256;SDS011;56376;53.356;-1.748;2023-04-25T01:26:13;6.47;;;2.23;;
69256;SDS011;56376;53.356;-1.748;2023-04-25T01:28:40;4.93;;;2.57;;
69256;SDS011;56376;53.356;-1.748;2023-04-25T01:31:06;4.80;;;1.70;;
69256;SDS011;56376;53.356;-1.748;2023-04-25T01:33:32;4.67;;;2.00;;
69256;SDS011;56376;53.356;-1.748;2023-04-25T01:35:57;4.37;;;1.83;;
69256;SDS011;56376;53.356;-1.748;2023-04-25T01:38:23;5.90;;;2.13;;
69256;SDS011;56376;53.356;-1.748;2023-04-25T01:40:48;3.87;;;2.43;;
69256;SDS011;56376;53.356;-1.748;2023-04-25T01:43:15;6.80;;;3.10;;
69256;SDS011;56376;53.356;-1.748;2023-04-25T01:45:41;5.33;;;1.90;;
69256;SDS011;56376;53.356;-1.748;2023-04-25T01:48:08;8.03;;;2.90;;
69256;SDS011;56376;53.356;-1.748;2023-04-25T01:50:34;11.73;;;3.87;;
69256;SDS011;56376;53.356;-1.748;2023-04-25T01:52:59;11.20;;;4.03;;
69256;SDS011;56376;53.356;-1.748;2023-04-25T01:55:26;11.33;;;3.30;;
69256;SDS011;56376;53.356;-1.748;2023-04-25T01:57:52;10.90;;;3.50;;
69256;SDS011;56376;53.356;-1.748;2023-04-25T02:00:18;9.07;;;2.67;;
69256;SDS011;56376;53.356;-1.748;2023-04-25T02:02:43;6.57;;;2.77;;
69256;SDS011;56376;53.356;-1.748;2023-04-25T02:05:09;6.13;;;2.83;;
69256;SDS011;56376;53.356;-1.748;2023-04-25T02:07:34;5.90;;;1.97;;
69256;SDS011;56376;53.356;-1.748;2023-04-25T02:10:00;5.07;;;2.07;;
69256;SDS011;56376;53.356;-1.748;2023-04-25T02:12:25;3.53;;;1.83;;
69256;SDS011;56376;53.356;-1.748;2023-04-25T02:14:52;3.60;;;2.20;;
69256;SDS011;56376;53.356;-1.748;2023-04-25T02:17:17;4.07;;;1.70;;
69256;SDS011;56376;53.356;-1.748;2023-04-25T02:19:43;2.43;;;1.27;;
69256;SDS011;56376;53.356;-1.748;2023-04-25T02:22:09;2.83;;;1.97;;
69256;SDS011;56376;53.356;-1.748;2023-04-25T02:24:35;2.70;;;1.23;;
69256;SDS011;56376;53.356;-1.748;2023-04-25T02:27:01;1.83;;;1.30;;
69256;SDS011;56376;53.356;-1.748;2023-04-25T02:29:26;2.97;;;1.30;;
69256;SDS011;56376;53.356;-1.748;2023-04-25T02:31:51;3.33;;;1.30;;
69256;SDS011;56376;53.356;-1.748;2023-04-25T02:34:17;2.30;;;1.30;;
69256;SDS011;56376;53.356;-1.748;2023-04-25T02:36:42;4.17;;;1.83;;
69256;SDS011;56376;53.356;-1.748;2023-04-25T02:39:08;4.63;;;1.70;;
69256;SDS011;56376;53.356;-1.748;2023-04-25T02:41:33;4.10;;;1.40;;
69256;SDS011;56376;53.356;-1.748;2023-04-25T02:43:58;3.63;;;1.50;;
69256;SDS011;56376;53.356;-1.748;2023-04-25T02:46:24;3.90;;;1.73;;
69256;SDS011;56376;53.356;-1.748;2023-04-25T02:48:49;3.67;;;1.60;;
69256;SDS011;56376;53.356;-1.748;2023-04-25T02:51:14;2.87;;;1.20;;
69256;SDS011;56376;53.356;-1.748;2023-04-25T02:53:41;3.63;;;1.50;;
69256;SDS011;56376;53.356;-1.748;2023-04-25T02:56:07;4.37;;;1.73;;
69256;SDS011;56376;53.356;-1.748;2023-04-25T02:58:32;4.93;;;1.63;;
69256;SDS011;56376;53.356;-1.748;2023-04-25T03:00:57;3.27;;;1.40;;
69256;SDS011;56376;53.356;-1.748;2023-04-25T03:03:23;3.03;;;1.40;;
69256;SDS011;56376;53.356;-1.748;2023-04-25T03:05:49;4.00;;;1.60;;
69256;SDS011;56376;53.356;-1.748;2023-04-25T03:08:15;3.83;;;1.57;;
69256;SDS011;56376;53.356;-1.748;2023-04-25T03:10:41;1.93;;;1.57;;
69256;SDS011;56376;53.356;-1.748;2023-04-25T03:13:07;3.37;;;1.40;;
69256;SDS011;56376;53.356;-1.748;2023-04-25T03:15:32;2.20;;;1.27;;
69256;SDS011;56376;53.356;-1.748;2023-04-25T03:17:57;2.60;;;1.53;;
69256;SDS011;56376;53.356;-1.748;2023-04-25T03:20:23;1.03;;;0.83;;
69256;SDS011;56376;53.356;-1.748;2023-04-25T03:22:48;3.57;;;1.50;;
69256;SDS011;56376;53.356;-1.748;2023-04-25T03:25:14;2.83;;;1.47;;
69256;SDS011;56376;53.356;-1.748;2023-04-25T03:27:39;3.60;;;1.67;;
69256;SDS011;56376;53.356;-1.748;2023-04-25T03:30:05;5.70;;;2.07;;
69256;SDS011;56376;53.356;-1.748;2023-04-25T03:32:31;4.20;;;1.53;;
69256;SDS011;56376;53.356;-1.748;2023-04-25T03:34:57;2.97;;;1.50;;
69256;SDS011;56376;53.356;-1.748;2023-04-25T03:37:22;3.47;;;1.40;;
69256;SDS011;56376;53.356;-1.748;2023-04-25T03:39:47;3.30;;;1.60;;
69256;SDS011;56376;53.356;-1.748;2023-04-25T03:42:13;3.30;;;1.23;;
69256;SDS011;56376;53.356;-1.748;2023-04-25T03:44:38;2.53;;;1.20;;
69256;SDS011;56376;53.356;-1.748;2023-04-25T03:47:03;1.83;;;1.03;;
69256;SDS011;56376;53.356;-1.748;2023-04-25T03:49:29;2.43;;;1.60;;
69256;SDS011;56376;53.356;-1.748;2023-04-25T03:51:54;2.67;;;1.33;;
69256;SDS011;56376;53.356;-1.748;2023-04-25T03:54:19;1.83;;;0.97;;
69256;SDS011;56376;53.356;-1.748;2023-04-25T03:56:45;3.60;;;1.20;;
69256;SDS011;56376;53.356;-1.748;2023-04-25T03:59:10;2.30;;;1.20;;
69256;SDS011;56376;53.356;-1.748;2023-04-25T04:01:35;1.77;;;1.03;;
69256;SDS011;56376;53.356;-1.748;2023-04-25T04:04:01;2.13;;;1.20;;
69256;SDS011;56376;53.356;-1.748;2023-04-25T04:06:27;1.60;;;1.03;;
69256;SDS011;56376;53.356;-1.748;2023-04-25T04:08:53;1.83;;;1.10;;
69256;SDS011;56376;53.356;-1.748;2023-04-25T04:11:19;4.60;;;1.20;;
69256;SDS011;56376;53.356;-1.748;2023-04-25T04:13:45;2.17;;;1.00;;
69256;SDS011;56376;53.356;-1.748;2023-04-25T04:16:10;3.70;;;1.00;;
69256;SDS011;56376;53.356;-1.748;2023-04-25T04:18:36;3.43;;;1.20;;
69256;SDS011;56376;53.356;-1.748;2023-04-25T04:21:01;3.47;;;1.70;;
69256;SDS011;56376;53.356;-1.748;2023-04-25T04:23:27;6.80;;;1.30;;
69256;SDS011;56376;53.356;-1.748;2023-04-25T04:25:53;2.53;;;1.00;;
69256;SDS011;56376;53.356;-1.748;2023-04-25T04:28:19;3.30;;;1.43;;
69256;SDS011;56376;53.356;-1.748;2023-04-25T04:30:46;4.23;;;1.00;;
69256;SDS011;56376;53.356;-1.748;2023-04-25T04:33:12;5.17;;;1.00;;
69256;SDS011;56376;53.356;-1.748;2023-04-25T04:35:37;2.83;;;1.00;;
69256;SDS011;56376;53.356;-1.748;2023-04-25T04:38:03;2.60;;;1.10;;
69256;SDS011;56376;53.356;-1.748;2023-04-25T04:40:28;3.70;;;1.60;;
69256;SDS011;56376;53.356;-1.748;2023-04-25T04:42:56;4.10;;;1.23;;
69256;SDS011;56376;53.356;-1.748;2023-04-25T04:45:22;2.83;;;1.30;;
69256;SDS011;56376;53.356;-1.748;2023-04-25T04:47:48;3.63;;;1.27;;
69256;SDS011;56376;53.356;-1.748;2023-04-25T04:50:14;3.27;;;1.63;;
69256;SDS011;56376;53.356;-1.748;2023-04-25T04:52:41;1.30;;;0.90;;
69256;SDS011;56376;53.356;-1.748;2023-04-25T04:55:07;2.53;;;1.03;;
69256;SDS011;56376;53.356;-1.748;2023-04-25T04:57:34;3.03;;;1.60;;
69256;SDS011;56376;53.356;-1.748;2023-04-25T05:00:00;2.67;;;1.00;;
69256;SDS011;56376;53.356;-1.748;2023-04-25T05:02:26;2.30;;;1.10;;
69256;SDS011;56376;53.356;-1.748;2023-04-25T05:04:52;3.37;;;1.20;;
69256;SDS011;56376;53.356;-1.748;2023-04-25T05:07:18;6.13;;;1.27;;
69256;SDS011;56376;53.356;-1.748;2023-04-25T05:09:44;3.30;;;1.17;;
69256;SDS011;56376;53.356;-1.748;2023-04-25T05:12:09;3.77;;;1.10;;
69256;SDS011;56376;53.356;-1.748;2023-04-25T05:14:35;1.37;;;0.93;;
69256;SDS011;56376;53.356;-1.748;2023-04-25T05:17:00;2.93;;;1.30;;
69256;SDS011;56376;53.356;-1.748;2023-04-25T05:19:25;2.23;;;1.00;;
69256;SDS011;56376;53.356;-1.748;2023-04-25T05:21:51;2.10;;;1.10;;
69256;SDS011;56376;53.356;-1.748;2023-04-25T05:24:17;2.97;;;1.03;;
69256;SDS011;56376;53.356;-1.748;2023-04-25T05:26:42;2.13;;;1.20;;
69256;SDS011;56376;53.356;-1.748;2023-04-25T05:29:07;2.73;;;1.17;;
69256;SDS011;56376;53.356;-1.748;2023-04-25T05:31:33;2.93;;;1.30;;
69256;SDS011;56376;53.356;-1.748;2023-04-25T05:33:59;2.97;;;1.30;;
69256;SDS011;56376;53.356;-1.748;2023-04-25T05:36:25;2.10;;;1.10;;
69256;SDS011;56376;53.356;-1.748;2023-04-25T05:38:51;5.07;;;1.60;;
69256;SDS011;56376;53.356;-1.748;2023-04-25T05:41:16;3.60;;;1.57;;
69256;SDS011;56376;53.356;-1.748;2023-04-25T05:43:41;3.20;;;1.50;;
69256;SDS011;56376;53.356;-1.748;2023-04-25T05:46:12;1.60;;;1.10;;
69256;SDS011;56376;53.356;-1.748;2023-04-25T05:48:38;2.40;;;1.13;;
69256;SDS011;56376;53.356;-1.748;2023-04-25T05:51:04;2.17;;;1.27;;
69256;SDS011;56376;53.356;-1.748;2023-04-25T05:53:30;2.83;;;1.30;;
69256;SDS011;56376;53.356;-1.748;2023-04-25T05:55:55;3.77;;;1.30;;
69256;SDS011;56376;53.356;-1.748;2023-04-25T05:58:20;2.47;;;1.30;;
69256;SDS011;56376;53.356;-1.748;2023-04-25T06:00:46;3.17;;;1.43;;
69256;SDS011;56376;53.356;-1.748;2023-04-25T06:03:12;4.83;;;2.70;;
69256;SDS011;56376;53.356;-1.748;2023-04-25T06:05:41;1.77;;;1.30;;
69256;SDS011;56376;53.356;-1.748;2023-04-25T06:08:07;4.43;;;1.50;;
69256;SDS011;56376;53.356;-1.748;2023-04-25T06:10:33;3.67;;;1.40;;
69256;SDS011;56376;53.356;-1.748;2023-04-25T06:12:58;2.93;;;1.50;;
69256;SDS011;56376;53.356;-1.748;2023-04-25T06:15:23;3.73;;;1.50;;
69256;SDS011;56376;53.356;-1.748;2023-04-25T06:17:49;1.97;;;1.20;;
69256;SDS011;56376;53.356;-1.748;2023-04-25T06:20:14;2.63;;;1.50;;
69256;SDS011;56376;53.356;-1.748;2023-04-25T06:22:40;3.10;;;1.20;;
69256;SDS011;56376;53.356;-1.748;2023-04-25T06:25:05;3.80;;;1.83;;
69256;SDS011;56376;53.356;-1.748;2023-04-25T06:27:32;3.53;;;1.83;;
69256;SDS011;56376;53.356;-1.748;2023-04-25T06:29:58;2.10;;;1.23;;
69256;SDS011;56376;53.356;-1.748;2023-04-25T06:32:23;3.03;;;1.43;;
69256;SDS011;56376;53.356;-1.748;2023-04-25T06:34:49;3.33;;;1.70;;
69256;SDS011;56376;53.356;-1.748;2023-04-25T06:37:14;2.10;;;1.37;;
69256;SDS011;56376;53.356;-1.748;2023-04-25T06:39:39;3.23;;;1.40;;
69256;SDS011;56376;53.356;-1.748;2023-04-25T06:42:05;2.80;;;1.30;;
69256;SDS011;56376;53.356;-1.748;2023-04-25T06:44:30;5.10;;;1.50;;
69256;SDS011;56376;53.356;-1.748;2023-04-25T06:46:55;4.03;;;1.67;;
69256;SDS011;56376;53.356;-1.748;2023-04-25T06:49:21;3.77;;;1.40;;
69256;SDS011;56376;53.356;-1.748;2023-04-25T06:51:46;4.03;;;1.47;;
69256;SDS011;56376;53.356;-1.748;2023-04-25T06:54:12;5.77;;;1.77;;
69256;SDS011;56376;53.356;-1.748;2023-04-25T06:56:37;8.50;;;2.13;;
69256;SDS011;56376;53.356;-1.748;2023-04-25T06:59:03;2.60;;;1.30;;
69256;SDS011;56376;53.356;-1.748;2023-04-25T07:01:28;3.27;;;1.43;;
69256;SDS011;56376;53.356;-1.748;2023-04-25T07:03:53;4.47;;;1.67;;
69256;SDS011;56376;53.356;-1.748;2023-04-25T07:06:19;2.80;;;1.50;;
69256;SDS011;56376;53.356;-1.748;2023-04-25T07:08:44;4.03;;;1.57;;
69256;SDS011;56376;53.356;-1.748;2023-04-25T07:11:10;6.03;;;2.27;;
69256;SDS011;56376;53.356;-1.748;2023-04-25T07:13:35;2.77;;;1.40;;
69256;SDS011;56376;53.356;-1.748;2023-04-25T07:16:01;3.07;;;1.60;;
69256;SDS011;56376;53.356;-1.748;2023-04-25T07:18:26;1.80;;;1.30;;
69256;SDS011;56376;53.356;-1.748;2023-04-25T07:20:52;3.90;;;1.30;;
69256;SDS011;56376;53.356;-1.748;2023-04-25T07:23:18;5.20;;;2.00;;
69256;SDS011;56376;53.356;-1.748;2023-04-25T07:25:43;3.40;;;1.97;;
69256;SDS011;56376;53.356;-1.748;2023-04-25T07:28:09;4.17;;;1.70;;
69256;SDS011;56376;53.356;-1.748;2023-04-25T07:30:34;2.87;;;1.67;;
69256;SDS011;56376;53.356;-1.748;2023-04-25T07:33:00;3.27;;;1.80;;
69256;SDS011;56376;53.356;-1.748;2023-04-25T07:35:25;2.43;;;1.40;;
69256;SDS011;56376;53.356;-1.748;2023-04-25T07:37:51;3.37;;;1.37;;
69256;SDS011;56376;53.356;-1.748;2023-04-25T07:40:16;3.53;;;1.43;;
69256;SDS011;56376;53.356;-1.748;2023-04-25T07:42:41;4.20;;;1.40;;
69256;SDS011;56376;53.356;-1.748;2023-04-25T07:45:07;4.53;;;3.40;;
69256;SDS011;56376;53.356;-1.748;2023-04-25T07:47:34;3.50;;;2.80;;
69256;SDS011;56376;53.356;-1.748;2023-04-25T07:50:00;7.07;;;4.70;;
69256;SDS011;56376;53.356;-1.748;2023-04-25T07:52:25;4.07;;;2.10;;
69256;SDS011;56376;53.356;-1.748;2023-04-25T07:54:50;3.00;;;1.87;;
69256;SDS011;56376;53.356;-1.748;2023-04-25T07:57:16;3.17;;;1.37;;
69256;SDS011;56376;53.356;-1.748;2023-04-25T07:59:42;3.43;;;1.87;;
69256;SDS011;56376;53.356;-1.748;2023-04-25T08:02:07;4.63;;;2.33;;
69256;SDS011;56376;53.356;-1.748;2023-04-25T08:04:33;1.40;;;1.20;;
69256;SDS011;56376;53.356;-1.748;2023-04-25T08:06:58;2.47;;;1.60;;
69256;SDS011;56376;53.356;-1.748;2023-04-25T08:09:23;2.47;;;1.80;;
69256;SDS011;56376;53.356;-1.748;2023-04-25T08:11:49;3.03;;;1.40;;
69256;SDS011;56376;53.356;-1.748;2023-04-25T08:14:15;6.67;;;2.30;;
69256;SDS011;56376;53.356;-1.748;2023-04-25T08:16:40;9.33;;;3.53;;
69256;SDS011;56376;53.356;-1.748;2023-04-25T08:19:06;3.00;;;1.67;;
69256;SDS011;56376;53.356;-1.748;2023-04-25T08:21:31;2.90;;;1.40;;
69256;SDS011;56376;53.356;-1.748;2023-04-25T08:23:57;3.83;;;1.50;;
69256;SDS011;56376;53.356;-1.748;2023-04-25T08:26:23;4.20;;;2.05;;
69256;SDS011;56376;53.356;-1.748;2023-04-25T08:28:50;2.40;;;1.20;;
69256;SDS011;56376;53.356;-1.748;2023-04-25T08:31:15;3.03;;;1.30;;
69256;SDS011;56376;53.356;-1.748;2023-04-25T08:33:41;3.30;;;1.00;;
69256;SDS011;56376;53.356;-1.748;2023-04-25T08:36:06;2.50;;;1.20;;
69256;SDS011;56376;53.356;-1.748;2023-04-25T08:38:32;1.88;;;1.25;;
69256;SDS011;56376;53.356;-1.748;2023-04-25T08:40:57;2.00;;;1.80;;
69256;SDS011;56376;53.356;-1.748;2023-04-25T08:43:25;3.30;;;1.25;;
69256;SDS011;56376;53.356;-1.748;2023-04-25T08:45:53;7.05;;;2.38;;
69256;SDS011;56376;53.356;-1.748;2023-04-25T08:48:21;4.80;;;2.00;;
69256;SDS011;56376;53.356;-1.748;2023-04-25T08:53:22;2.47;;;1.73;;
69256;SDS011;56376;53.356;-1.748;2023-04-25T08:55:50;7.75;;;2.58;;
69256;SDS011;56376;53.356;-1.748;2023-04-25T08:58:18;7.10;;;2.70;;
69256;SDS011;56376;53.356;-1.748;2023-04-25T09:00:48;2.30;;;1.33;;
69256;SDS011;56376;53.356;-1.748;2023-04-25T09:03:15;1.98;;;1.20;;
69256;SDS011;56376;53.356;-1.748;2023-04-25T09:05:41;2.20;;;1.25;;
69256;SDS011;56376;53.356;-1.748;2023-04-25T09:08:07;2.22;;;1.40;;
69256;SDS011;56376;53.356;-1.748;2023-04-25T09:10:32;3.45;;;1.35;;
69256;SDS011;56376;53.356;-1.748;2023-04-25T09:13:04;2.13;;;1.45;;
69256;SDS011;56376;53.356;-1.748;2023-04-25T09:15:52;1.20;;;1.10;;
69256;SDS011;56376;53.356;-1.748;2023-04-25T09:18:28;2.60;;;1.50;;
69256;SDS011;56376;53.356;-1.748;2023-04-25T09:21:05;3.40;;;1.48;;
69256;SDS011;56376;53.356;-1.748;2023-04-25T09:23:38;2.50;;;1.20;;
69256;SDS011;56376;53.356;-1.748;2023-04-25T09:26:06;2.67;;;2.00;;
69256;SDS011;56376;53.356;-1.748;2023-04-25T09:28:32;3.25;;;1.50;;
69256;SDS011;56376;53.356;-1.748;2023-04-25T09:31:00;1.98;;;1.50;;
69256;SDS011;56376;53.356;-1.748;2023-04-25T09:33:29;2.72;;;1.38;;
69256;SDS011;56376;53.356;-1.748;2023-04-25T09:36:03;2.47;;;1.38;;
69256;SDS011;56376;53.356;-1.748;2023-04-25T09:38:31;3.67;;;2.22;;
69256;SDS011;56376;53.356;-1.748;2023-04-25T09:41:05;3.45;;;1.60;;
69256;SDS011;56376;53.356;-1.748;2023-04-25T09:43:30;2.38;;;1.30;;
69256;SDS011;56376;53.356;-1.748;2023-04-25T09:45:56;2.08;;;1.17;;
69256;SDS011;56376;53.356;-1.748;2023-04-25T09:48:24;3.83;;;1.30;;
69256;SDS011;56376;53.356;-1.748;2023-04-25T09:51:03;3.42;;;1.45;;
69256;SDS011;56376;53.356;-1.748;2023-04-25T09:53:29;1.98;;;1.30;;
69256;SDS011;56376;53.356;-1.748;2023-04-25T09:55:55;3.70;;;1.55;;
69256;SDS011;56376;53.356;-1.748;2023-04-25T09:58:21;4.40;;;1.67;;
69256;SDS011;56376;53.356;-1.748;2023-04-25T10:00:49;2.53;;;1.45;;
69256;SDS011;56376;53.356;-1.748;2023-04-25T10:03:15;2.92;;;1.65;;
69256;SDS011;56376;53.356;-1.748;2023-04-25T10:05:45;2.55;;;1.30;;
69256;SDS011;56376;53.356;-1.748;2023-04-25T10:08:13;1.98;;;1.33;;
69256;SDS011;56376;53.356;-1.748;2023-04-25T10:10:38;2.03;;;1.48;;
69256;SDS011;56376;53.356;-1.748;2023-04-25T10:13:05;2.78;;;1.63;;
69256;SDS011;56376;53.356;-1.748;2023-04-25T10:15:34;2.38;;;1.50;;
69256;SDS011;56376;53.356;-1.748;2023-04-25T10:18:01;1.92;;;1.27;;
69256;SDS011;56376;53.356;-1.748;2023-04-25T10:20:27;2.40;;;1.17;;
69256;SDS011;56376;53.356;-1.748;2023-04-25T10:22:54;4.45;;;1.40;;
69256;SDS011;56376;53.356;-1.748;2023-04-25T10:25:23;2.63;;;1.20;;
69256;SDS011;56376;53.356;-1.748;2023-04-25T10:27:52;2.70;;;1.65;;
69256;SDS011;56376;53.356;-1.748;2023-04-25T10:30:18;2.60;;;1.15;;
69256;SDS011;56376;53.356;-1.748;2023-04-25T10:32:44;1.73;;;1.08;;
69256;SDS011;56376;53.356;-1.748;2023-04-25T10:35:17;3.42;;;1.50;;
69256;SDS011;56376;53.356;-1.748;2023-04-25T10:40:29;1.70;;;1.30;;
69256;SDS011;56376;53.356;-1.748;2023-04-25T10:42:56;2.72;;;1.30;;
69256;SDS011;56376;53.356;-1.748;2023-04-25T10:45:56;2.25;;;1.20;;
69256;SDS011;56376;53.356;-1.748;2023-04-25T10:48:27;5.05;;;1.30;;
69256;SDS011;56376;53.356;-1.748;2023-04-25T10:51:07;1.92;;;1.17;;
69256;SDS011;56376;53.356;-1.748;2023-04-25T10:53:35;3.28;;;1.30;;
69256;SDS011;56376;53.356;-1.748;2023-04-25T10:56:08;2.45;;;1.40;;
69256;SDS011;56376;53.356;-1.748;2023-04-25T10:58:42;1.92;;;1.30;;
69256;SDS011;56376;53.356;-1.748;2023-04-25T11:01:09;2.08;;;1.20;;
69256;SDS011;56376;53.356;-1.748;2023-04-25T11:03:38;2.15;;;1.20;;
69256;SDS011;56376;53.356;-1.748;2023-04-25T11:06:06;2.45;;;1.42;;
69256;SDS011;56376;53.356;-1.748;2023-04-25T11:08:51;1.70;;;1.30;;
69256;SDS011;56376;53.356;-1.748;2023-04-25T11:11:17;2.97;;;1.65;;
69256;SDS011;56376;53.356;-1.748;2023-04-25T11:13:43;2.53;;;1.23;;
69256;SDS011;56376;53.356;-1.748;2023-04-25T11:16:10;2.45;;;1.50;;
69256;SDS011;56376;53.356;-1.748;2023-04-25T11:18:35;3.05;;;1.23;;
69256;SDS011;56376;53.356;-1.748;2023-04-25T11:21:02;2.10;;;1.38;;
69256;SDS011;56376;53.356;-1.748;2023-04-25T11:23:27;2.65;;;1.23;;
69256;SDS011;56376;53.356;-1.748;2023-04-25T11:25:55;1.75;;;1.42;;
69256;SDS011;56376;53.356;-1.748;2023-04-25T11:28:21;1.77;;;1.67;;
69256;SDS011;56376;53.356;-1.748;2023-04-25T11:30:49;2.35;;;1.48;;
69256;SDS011;56376;53.356;-1.748;2023-04-25T11:33:18;2.25;;;1.50;;
69256;SDS011;56376;53.356;-1.748;2023-04-25T11:35:48;1.42;;;1.10;;
69256;SDS011;56376;53.356;-1.748;2023-04-25T11:38:14;3.92;;;1.52;;
69256;SDS011;56376;53.356;-1.748;2023-04-25T11:40:39;2.50;;;1.35;;
69256;SDS011;56376;53.356;-1.748;2023-04-25T11:43:05;2.97;;;1.52;;
69256;SDS011;56376;53.356;-1.748;2023-04-25T11:45:31;1.90;;;1.30;;
69256;SDS011;56376;53.356;-1.748;2023-04-25T11:47:57;1.48;;;1.00;;
69256;SDS011;56376;53.356;-1.748;2023-04-25T11:50:22;2.53;;;1.40;;
69256;SDS011;56376;53.356;-1.748;2023-04-25T11:52:48;1.85;;;1.23;;
69256;SDS011;56376;53.356;-1.748;2023-04-25T11:55:14;3.53;;;1.40;;
69256;SDS011;56376;53.356;-1.748;2023-04-25T11:57:41;3.20;;;1.40;;
69256;SDS011;56376;53.356;-1.748;2023-04-25T12:02:44;2.42;;;1.40;;
69256;SDS011;56376;53.356;-1.748;2023-04-25T12:05:11;2.85;;;1.27;;
69256;SDS011;56376;53.356;-1.748;2023-04-25T12:07:38;2.88;;;1.27;;
69256;SDS011;56376;53.356;-1.748;2023-04-25T12:10:04;2.90;;;1.60;;
69256;SDS011;56376;53.356;-1.748;2023-04-25T12:12:37;3.53;;;1.30;;
69256;SDS011;56376;53.356;-1.748;2023-04-25T12:15:13;1.95;;;1.25;;
69256;SDS011;56376;53.356;-1.748;2023-04-25T12:17:41;4.32;;;2.03;;
69256;SDS011;56376;53.356;-1.748;2023-04-25T12:20:10;3.33;;;1.40;;
69256;SDS011;56376;53.356;-1.748;2023-04-25T12:22:40;1.83;;;1.40;;
69256;SDS011;56376;53.356;-1.748;2023-04-25T12:25:09;2.85;;;1.42;;
69256;SDS011;56376;53.356;-1.748;2023-04-25T12:27:35;1.65;;;1.20;;
69256;SDS011;56376;53.356;-1.748;2023-04-25T12:30:01;2.42;;;1.73;;
69256;SDS011;56376;53.356;-1.748;2023-04-25T12:32:28;1.52;;;1.27;;
69256;SDS011;56376;53.356;-1.748;2023-04-25T12:34:54;1.45;;;1.30;;
69256;SDS011;56376;53.356;-1.748;2023-04-25T12:37:20;1.55;;;1.25;;
69256;SDS011;56376;53.356;-1.748;2023-04-25T12:39:45;2.92;;;1.33;;
69256;SDS011;56376;53.356;-1.748;2023-04-25T12:42:11;1.65;;;1.30;;
69256;SDS011;56376;53.356;-1.748;2023-04-25T12:44:37;2.70;;;1.92;;
69256;SDS011;56376;53.356;-1.748;2023-04-25T12:47:03;2.22;;;1.33;;
69256;SDS011;56376;53.356;-1.748;2023-04-25T12:49:29;3.47;;;2.13;;
69256;SDS011;56376;53.356;-1.748;2023-04-25T12:51:54;1.38;;;1.10;;
69256;SDS011;56376;53.356;-1.748;2023-04-25T12:54:19;2.25;;;1.40;;
69256;SDS011;56376;53.356;-1.748;2023-04-25T12:56:45;2.67;;;1.50;;
69256;SDS011;56376;53.356;-1.748;2023-04-25T12:59:11;2.55;;;1.20;;
69256;SDS011;56376;53.356;-1.748;2023-04-25T13:01:36;6.13;;;1.55;;
69256;SDS011;56376;53.356;-1.748;2023-04-25T13:04:02;2.83;;;1.80;;
69256;SDS011;56376;53.356;-1.748;2023-04-25T13:06:27;3.80;;;1.50;;
69256;SDS011;56376;53.356;-1.748;2023-04-25T13:08:54;3.15;;;1.70;;
69256;SDS011;56376;53.356;-1.748;2023-04-25T13:11:20;4.97;;;2.53;;
69256;SDS011;56376;53.356;-1.748;2023-04-25T13:13:45;5.32;;;2.95;;
69256;SDS011;56376;53.356;-1.748;2023-04-25T13:16:11;4.25;;;1.98;;
69256;SDS011;56376;53.356;-1.748;2023-04-25T13:18:38;3.80;;;2.58;;
69256;SDS011;56376;53.356;-1.748;2023-04-25T13:21:04;3.25;;;1.75;;
69256;SDS011;56376;53.356;-1.748;2023-04-25T13:23:30;2.20;;;1.50;;
69256;SDS011;56376;53.356;-1.748;2023-04-25T13:25:56;1.75;;;1.30;;
69256;SDS011;56376;53.356;-1.748;2023-04-25T13:28:25;3.15;;;1.75;;
69256;SDS011;56376;53.356;-1.748;2023-04-25T13:30:51;2.50;;;1.65;;
69256;SDS011;56376;53.356;-1.748;2023-04-25T13:33:16;2.88;;;1.52;;
69256;SDS011;56376;53.356;-1.748;2023-04-25T13:35:42;2.45;;;1.75;;
69256;SDS011;56376;53.356;-1.748;2023-04-25T13:38:08;3.67;;;1.67;;
69256;SDS011;56376;53.356;-1.748;2023-04-25T13:40:34;2.88;;;1.48;;
69256;SDS011;56376;53.356;-1.748;2023-04-25T13:42:59;2.03;;;1.48;;
69256;SDS011;56376;53.356;-1.748;2023-04-25T13:45:26;3.03;;;1.90;;
69256;SDS011;56376;53.356;-1.748;2023-04-25T13:47:52;2.40;;;2.00;;
69256;SDS011;56376;53.356;-1.748;2023-04-25T13:50:17;1.15;;;1.05;;
69256;SDS011;56376;53.356;-1.748;2023-04-25T13:52:44;1.65;;;1.30;;
69256;SDS011;56376;53.356;-1.748;2023-04-25T13:55:10;3.28;;;1.50;;
69256;SDS011;56376;53.356;-1.748;2023-04-25T13:57:36;2.10;;;1.50;;
69256;SDS011;56376;53.356;-1.748;2023-04-25T14:00:02;1.48;;;1.35;;
69256;SDS011;56376;53.356;-1.748;2023-04-25T14:02:33;2.05;;;1.48;;
69256;SDS011;56376;53.356;-1.748;2023-04-25T14:04:59;2.97;;;1.33;;
69256;SDS011;56376;53.356;-1.748;2023-04-25T14:07:25;2.33;;;1.52;;
69256;SDS011;56376;53.356;-1.748;2023-04-25T14:09:51;2.25;;;1.10;;
69256;SDS011;56376;53.356;-1.748;2023-04-25T14:12:16;2.63;;;1.35;;
69256;SDS011;56376;53.356;-1.748;2023-04-25T14:14:42;1.98;;;1.15;;
69256;SDS011;56376;53.356;-1.748;2023-04-25T14:17:08;1.83;;;1.63;;
69256;SDS011;56376;53.356;-1.748;2023-04-25T14:19:33;2.38;;;1.58;;
69256;SDS011;56376;53.356;-1.748;2023-04-25T14:21:59;1.80;;;1.20;;
69256;SDS011;56376;53.356;-1.748;2023-04-25T14:24:24;2.60;;;1.55;;
69256;SDS011;56376;53.356;-1.748;2023-04-25T14:26:50;1.98;;;1.52;;
69256;SDS011;56376;53.356;-1.748;2023-04-25T14:29:15;2.17;;;1.50;;
69256;SDS011;56376;53.356;-1.748;2023-04-25T14:31:41;3.50;;;1.52;;
69256;SDS011;56376;53.356;-1.748;2023-04-25T14:34:06;2.58;;;1.55;;
69256;SDS011;56376;53.356;-1.748;2023-04-25T14:36:32;3.95;;;1.70;;